createdAt,value
2022-12-05T00:01:37.520Z,2.39
2022-12-05T00:04:14.511Z,2.34
2022-12-05T00:06:42.741Z,2.33
2022-12-05T00:09:11.275Z,2.32
2022-12-05T00:11:39.878Z,2.32
2022-12-05T00:14:08.807Z,2.31
2022-12-05T00:16:38.140Z,2.31
2022-12-05T00:19:06.756Z,2.31
2022-12-05T00:21:35.544Z,2.30
2022-12-05T00:24:04.542Z,2.33
2022-12-05T00:26:31.935Z,2.33
2022-12-05T00:28:59.402Z,2.32
2022-12-05T00:31:27.375Z,2.32
2022-12-05T00:33:54.878Z,2.41
2022-12-05T00:36:26.840Z,2.42
2022-12-05T00:38:54.217Z,2.40
2022-12-05T00:41:24.177Z,2.46
2022-12-05T00:43:51.691Z,2.48
2022-12-05T00:46:21.525Z,2.47
2022-12-05T00:48:48.303Z,2.54
2022-12-05T00:51:21.186Z,2.48
2022-12-05T00:53:48.644Z,2.45
2022-12-05T00:56:19.275Z,2.43
2022-12-05T00:58:46.544Z,2.39
2022-12-05T01:01:14.896Z,2.39
2022-12-05T01:03:43.351Z,2.39
2022-12-05T01:06:11.429Z,2.46
2022-12-05T01:08:38.375Z,2.41
2022-12-05T01:11:06.651Z,2.40
2022-12-05T01:13:33.706Z,2.39
2022-12-05T01:16:00.312Z,2.45
2022-12-05T01:18:27.090Z,2.44
2022-12-05T01:20:54.308Z,2.47
2022-12-05T01:23:21.394Z,2.50
2022-12-05T01:25:49.053Z,2.53
2022-12-05T01:28:16.454Z,2.55
2022-12-05T01:30:45.896Z,2.64
2022-12-05T01:33:13.111Z,2.60
2022-12-05T01:35:40.955Z,2.57
2022-12-05T01:38:08.528Z,2.58
2022-12-05T01:40:36.323Z,2.57
2022-12-05T01:43:04.302Z,2.60
2022-12-05T01:45:39.696Z,2.69
2022-12-05T01:48:12.396Z,2.68
2022-12-05T01:50:39.045Z,2.72
2022-12-05T01:53:06.175Z,2.69
2022-12-05T01:55:35.655Z,2.65
2022-12-05T01:58:05.239Z,2.63
2022-12-05T02:00:31.836Z,2.62
2022-12-05T02:03:06.826Z,2.64
2022-12-05T02:05:35.839Z,2.60
2022-12-05T02:08:08.464Z,2.57
2022-12-05T02:10:39.423Z,2.61
2022-12-05T02:13:26.722Z,2.60
2022-12-05T02:15:59.614Z,2.63
2022-12-05T02:18:31.981Z,2.61
2022-12-05T02:21:20.510Z,2.57
2022-12-05T02:24:22.527Z,2.68
2022-12-05T02:27:22.843Z,2.64
2022-12-05T02:30:04.667Z,2.65
2022-12-05T02:33:02.075Z,2.73
2022-12-05T02:35:59.442Z,2.81
2022-12-05T02:38:50.611Z,2.77
2022-12-05T02:41:27.328Z,2.80
2022-12-05T02:43:56.414Z,2.83
2022-12-05T02:46:26.710Z,2.84
2022-12-05T02:49:00.601Z,2.94
2022-12-05T02:51:31.927Z,3.13
2022-12-05T02:54:01.693Z,3.43
2022-12-05T02:56:32.584Z,3.61
2022-12-05T02:58:59.140Z,3.71
2022-12-05T03:01:28.801Z,3.66
2022-12-05T03:03:57.022Z,3.58
2022-12-05T03:06:28.593Z,3.51
2022-12-05T03:09:06.572Z,3.48
2022-12-05T03:11:42.752Z,3.39
2022-12-05T03:14:15.703Z,3.34
2022-12-05T03:16:45.983Z,3.28
2022-12-05T03:19:35.697Z,3.19
2022-12-05T03:22:08.620Z,3.14
2022-12-05T03:24:39.366Z,3.07
2022-12-05T03:27:14.901Z,3.03
2022-12-05T03:29:49.988Z,2.96
2022-12-05T03:32:22.176Z,2.90
2022-12-05T03:35:06.795Z,2.89
2022-12-05T03:37:52.891Z,2.88
2022-12-05T03:40:45.999Z,2.85
2022-12-05T03:43:30.215Z,2.81
2022-12-05T03:46:04.881Z,2.84
2022-12-05T03:48:53.081Z,2.86
2022-12-05T03:51:23.415Z,2.86
2022-12-05T03:54:02.317Z,2.92
2022-12-05T03:56:49.040Z,2.92
2022-12-05T03:59:36.825Z,2.90
2022-12-05T04:02:11.875Z,2.93
2022-12-05T04:04:45.467Z,2.96
2022-12-05T04:07:14.226Z,2.93
2022-12-05T04:09:56.056Z,2.94
2022-12-05T04:12:28.303Z,3.02
2022-12-05T04:15:00.109Z,3.04
2022-12-05T04:17:34.970Z,3.07
2022-12-05T04:20:30.917Z,3.10
2022-12-05T04:22:58.321Z,3.13
2022-12-05T04:25:34.104Z,3.17
2022-12-05T04:28:22.182Z,3.21
2022-12-05T04:31:00.829Z,3.26
2022-12-05T04:33:45.296Z,3.36
2022-12-05T04:36:11.729Z,3.51
2022-12-05T04:38:46.591Z,3.58
2022-12-05T04:41:19.265Z,3.68
2022-12-05T04:43:47.437Z,3.78
2022-12-05T04:46:18.201Z,3.84
2022-12-05T04:48:52.523Z,3.88
2022-12-05T04:51:24.355Z,3.92
2022-12-05T04:53:56.516Z,3.98
2022-12-05T04:56:27.631Z,4.04
2022-12-05T04:58:54.621Z,4.06
2022-12-05T05:01:30.169Z,4.09
2022-12-05T05:04:02.254Z,4.11
2022-12-05T05:06:29.547Z,4.11
2022-12-05T05:08:57.905Z,4.14
2022-12-05T05:11:33.413Z,4.16
2022-12-05T05:14:00.740Z,4.15
2022-12-05T05:16:45.337Z,4.15
2022-12-05T05:19:12.128Z,4.13
2022-12-05T05:21:40.647Z,4.14
2022-12-05T05:24:09.721Z,4.15
2022-12-05T05:26:41.744Z,4.16
2022-12-05T05:29:09.687Z,4.17
2022-12-05T05:31:37.435Z,4.17
2022-12-05T05:34:09.411Z,4.18
2022-12-05T05:36:37.402Z,4.19
2022-12-05T05:39:05.376Z,4.19
2022-12-05T05:41:34.008Z,4.20
2022-12-05T05:44:01.086Z,4.17
2022-12-05T05:46:29.048Z,4.18
2022-12-05T05:48:55.764Z,4.16
2022-12-05T05:51:23.691Z,4.11
2022-12-05T05:53:50.237Z,4.11
2022-12-05T05:56:21.804Z,4.15
2022-12-05T05:58:54.887Z,4.18
2022-12-05T06:01:21.581Z,4.18
2022-12-05T06:03:49.098Z,4.19
2022-12-05T06:06:15.939Z,4.23
2022-12-05T06:08:44.286Z,4.24
2022-12-05T06:11:26.176Z,4.26
2022-12-05T06:13:57.488Z,4.29
2022-12-05T06:16:24.900Z,4.26
2022-12-05T06:18:52.288Z,4.26
2022-12-05T06:21:19.347Z,4.25
2022-12-05T06:23:45.932Z,4.24
2022-12-05T06:26:18.729Z,4.28
2022-12-05T06:28:45.672Z,4.27
2022-12-05T06:31:18.228Z,4.26
2022-12-05T06:33:45.138Z,4.27
2022-12-05T06:36:17.820Z,4.25
2022-12-05T06:38:44.403Z,4.23
2022-12-05T06:41:14.474Z,4.22
2022-12-05T06:43:41.140Z,4.22
2022-12-05T06:46:09.827Z,4.22
2022-12-05T06:48:36.559Z,4.22
2022-12-05T06:51:03.914Z,4.24
2022-12-05T06:53:30.474Z,4.25
2022-12-05T06:56:02.595Z,4.27
2022-12-05T06:58:29.567Z,4.30
2022-12-05T07:01:15.285Z,4.30
2022-12-05T07:03:44.014Z,4.33
2022-12-05T07:06:10.646Z,4.33
2022-12-05T07:08:37.134Z,4.32
2022-12-05T07:11:03.836Z,4.33
2022-12-05T07:13:30.651Z,4.36
2022-12-05T07:15:59.106Z,4.35
2022-12-05T07:18:26.615Z,4.37
2022-12-05T07:21:14.375Z,4.40
2022-12-05T07:23:43.969Z,4.44
2022-12-05T07:26:13.931Z,4.42
2022-12-05T07:28:40.422Z,4.43
2022-12-05T07:31:09.882Z,4.47
2022-12-05T07:33:37.426Z,4.48
2022-12-05T07:36:06.532Z,4.50
2022-12-05T07:38:33.668Z,4.54
2022-12-05T07:41:00.241Z,4.55
2022-12-05T07:43:26.723Z,4.58
2022-12-05T07:45:53.316Z,4.57
2022-12-05T07:48:19.857Z,4.59
2022-12-05T07:50:46.419Z,4.62
2022-12-05T07:53:12.926Z,4.64
2022-12-05T07:55:39.562Z,4.68
2022-12-05T07:58:10.407Z,4.64
2022-12-05T08:00:36.855Z,4.69
2022-12-05T08:03:03.908Z,4.72
2022-12-05T08:05:30.455Z,4.72
2022-12-05T08:07:56.855Z,4.71
2022-12-05T08:10:23.351Z,4.71
2022-12-05T08:12:49.851Z,4.73
2022-12-05T08:15:16.379Z,4.73
2022-12-05T08:17:43.383Z,4.75
2022-12-05T08:20:09.971Z,4.77
2022-12-05T08:22:36.335Z,4.80
2022-12-05T08:25:02.820Z,4.88
2022-12-05T08:27:29.302Z,4.87
2022-12-05T08:29:56.154Z,4.87
2022-12-05T08:32:22.924Z,4.87
2022-12-05T08:34:49.420Z,4.88
2022-12-05T08:37:15.931Z,4.87
2022-12-05T08:39:42.377Z,4.87
2022-12-05T08:42:08.926Z,4.89
2022-12-05T08:44:35.360Z,4.91
2022-12-05T08:47:01.877Z,4.93
2022-12-05T08:49:28.388Z,4.98
2022-12-05T08:51:54.842Z,5.03
2022-12-05T08:54:21.328Z,5.05
2022-12-05T08:56:51.544Z,5.09
2022-12-05T08:59:17.998Z,5.11
2022-12-05T09:01:44.576Z,5.13
2022-12-05T09:04:12.373Z,5.15
2022-12-05T09:06:39.907Z,5.20
2022-12-05T09:09:08.642Z,5.24
2022-12-05T09:11:37.739Z,5.26
2022-12-05T09:14:05.205Z,5.30
2022-12-05T09:16:38.092Z,5.52
2022-12-05T09:19:10.777Z,5.69
2022-12-05T09:21:37.259Z,5.71
2022-12-05T09:24:03.833Z,5.67
2022-12-05T09:26:30.568Z,5.63
2022-12-05T09:28:57.588Z,5.66
2022-12-05T09:31:25.344Z,5.69
2022-12-05T09:33:52.601Z,5.67
2022-12-05T09:36:19.029Z,5.71
2022-12-05T09:38:46.561Z,5.71
2022-12-05T09:42:04.922Z,5.65
2022-12-05T09:45:10.083Z,5.62
2022-12-05T09:47:49.590Z,5.60
2022-12-05T09:50:28.812Z,5.57
2022-12-05T09:53:10.625Z,5.44
2022-12-05T09:55:49.950Z,5.43
2022-12-05T09:58:22.828Z,5.43
2022-12-05T10:00:59.738Z,5.41
2022-12-05T10:03:31.528Z,5.45
2022-12-05T10:06:11.408Z,5.40
2022-12-05T10:09:06.201Z,5.35
2022-12-05T10:11:42.099Z,5.33
2022-12-05T10:14:51.641Z,5.33
2022-12-05T10:17:27.970Z,5.34
2022-12-05T10:19:58.377Z,5.34
2022-12-05T10:22:45.799Z,5.33
2022-12-05T10:25:18.328Z,5.40
2022-12-05T10:27:53.567Z,5.37
2022-12-05T10:30:22.933Z,5.37
2022-12-05T10:33:06.429Z,5.34
2022-12-05T10:35:38.267Z,5.36
2022-12-05T10:38:24.729Z,5.41
2022-12-05T10:40:54.337Z,5.42
2022-12-05T10:43:32.967Z,5.38
2022-12-05T10:46:01.127Z,5.38
2022-12-05T10:48:27.909Z,5.46
2022-12-05T10:50:56.485Z,5.46
2022-12-05T10:53:46.182Z,5.41
2022-12-05T10:56:38.844Z,5.40
2022-12-05T10:59:06.541Z,5.42
2022-12-05T11:01:35.006Z,5.46
2022-12-05T11:04:13.639Z,5.48
2022-12-05T11:06:50.891Z,5.50
2022-12-05T11:09:21.386Z,5.47
2022-12-05T11:12:17.029Z,5.46
2022-12-05T11:14:55.844Z,5.53
2022-12-05T11:17:30.964Z,5.55
2022-12-05T11:19:57.438Z,5.57
2022-12-05T11:22:35.085Z,5.51
2022-12-05T11:25:31.904Z,5.49
2022-12-05T11:28:01.663Z,5.48
2022-12-05T11:30:29.578Z,5.47
2022-12-05T11:33:20.542Z,5.48
2022-12-05T11:35:49.337Z,5.43
2022-12-05T11:38:17.628Z,5.41
2022-12-05T11:40:50.113Z,5.31
2022-12-05T11:43:31.649Z,5.35
2022-12-05T11:46:15.900Z,5.31
2022-12-05T11:48:53.361Z,5.33
2022-12-05T11:51:50.677Z,5.28
2022-12-05T11:57:52.507Z,5.32
2022-12-05T12:00:40.622Z,5.36
2022-12-05T12:03:38.324Z,5.39
2022-12-05T12:06:31.556Z,5.43
2022-12-05T12:09:04.747Z,5.44
2022-12-05T12:12:26.482Z,5.48
2022-12-05T12:15:08.885Z,5.46
2022-12-05T12:17:48.091Z,5.44
2022-12-05T12:20:29.031Z,5.45
2022-12-05T12:23:21.622Z,5.47
2022-12-05T12:26:12.682Z,5.47
2022-12-05T12:29:09.937Z,5.40
2022-12-05T12:31:54.312Z,5.31
2022-12-05T12:34:39.256Z,5.33
2022-12-05T12:37:35.097Z,5.28
2022-12-05T12:40:21.331Z,5.27
2022-12-05T12:43:07.501Z,5.34
2022-12-05T12:45:56.549Z,5.27
2022-12-05T12:48:31.694Z,5.21
2022-12-05T12:51:01.825Z,5.22
2022-12-05T12:53:53.717Z,5.20
2022-12-05T12:56:38.752Z,5.17
2022-12-05T12:59:30.960Z,5.13
2022-12-05T13:02:00.129Z,5.17
2022-12-05T13:04:34.540Z,5.13
2022-12-05T13:07:13.663Z,5.14
2022-12-05T13:09:43.506Z,5.21
2022-12-05T13:12:16.729Z,5.21
2022-12-05T13:14:52.238Z,5.19
2022-12-05T13:17:22.347Z,5.19
2022-12-05T13:19:51.327Z,5.16
2022-12-05T13:22:23.530Z,5.12
2022-12-05T13:24:51.525Z,5.12
2022-12-05T13:27:20.920Z,5.08
2022-12-05T13:29:58.455Z,5.07
2022-12-05T13:32:33.080Z,5.07
2022-12-05T13:35:02.046Z,5.06
2022-12-05T13:37:49.153Z,5.06
2022-12-05T13:40:50.143Z,5.08
2022-12-05T13:43:20.614Z,5.11
2022-12-05T13:45:58.607Z,5.20
2022-12-05T13:48:28.039Z,5.19
2022-12-05T13:50:59.882Z,5.27
2022-12-05T13:53:38.607Z,5.31
2022-12-05T13:56:14.203Z,5.42
2022-12-05T13:58:53.633Z,5.45
2022-12-05T14:01:37.008Z,5.52
2022-12-05T14:04:40.267Z,5.55
2022-12-05T14:07:10.131Z,5.56
2022-12-05T14:09:52.346Z,5.50
2022-12-05T14:12:18.807Z,5.45
2022-12-05T14:14:57.612Z,5.43
2022-12-05T14:17:43.284Z,5.40
2022-12-05T14:20:15.552Z,5.34
2022-12-05T14:23:17.261Z,5.33
2022-12-05T14:26:13.278Z,5.27
2022-12-05T14:29:13.194Z,5.28
2022-12-05T14:32:10.511Z,5.23
2022-12-05T14:34:47.529Z,5.15
2022-12-05T14:37:16.778Z,5.13
2022-12-05T14:39:48.949Z,5.14
2022-12-05T14:42:24.145Z,5.05
2022-12-05T14:44:53.743Z,5.08
2022-12-05T14:47:28.210Z,4.98
2022-12-05T14:50:02.003Z,4.95
2022-12-05T14:52:31.118Z,4.99
2022-12-05T14:55:03.659Z,5.01
2022-12-05T14:57:32.890Z,5.09
2022-12-05T15:00:02.851Z,5.06
2022-12-05T15:02:34.169Z,5.08
2022-12-05T15:05:03.473Z,5.05
2022-12-05T15:07:35.510Z,4.98
2022-12-05T15:10:27.456Z,4.96
2022-12-05T15:13:12.211Z,4.96
2022-12-05T15:16:01.226Z,4.96
2022-12-05T15:18:48.883Z,4.95
2022-12-05T15:21:24.037Z,4.95
2022-12-05T15:24:05.230Z,4.95
2022-12-05T15:26:49.261Z,4.91
2022-12-05T15:29:33.098Z,4.85
2022-12-05T15:32:02.956Z,4.86
2022-12-05T15:34:45.461Z,4.84
2022-12-05T15:37:32.535Z,4.81
2022-12-05T15:40:06.028Z,4.79
2022-12-05T15:42:47.024Z,4.77
2022-12-05T15:45:13.676Z,4.77
2022-12-05T15:48:03.195Z,4.76
2022-12-05T15:50:44.031Z,4.83
2022-12-05T15:53:36.801Z,4.84
2022-12-05T15:56:23.611Z,4.79
2022-12-05T15:59:05.785Z,4.76
2022-12-05T16:01:35.371Z,4.69
2022-12-05T16:04:23.674Z,4.71
2022-12-05T16:06:55.717Z,4.71
2022-12-05T16:09:26.304Z,4.69
2022-12-05T16:11:53.761Z,4.69
2022-12-05T16:14:51.309Z,4.64
2022-12-05T16:17:15.710Z,4.61
2022-12-05T16:19:43.618Z,4.65
2022-12-05T16:22:13.166Z,4.61
2022-12-05T16:24:42.689Z,4.56
2022-12-05T16:27:25.604Z,4.59
2022-12-05T16:30:20.767Z,4.62
2022-12-05T16:32:49.863Z,4.62
2022-12-05T16:35:33.003Z,4.60
2022-12-05T16:38:23.328Z,4.56
2022-12-05T16:40:49.748Z,4.60
2022-12-05T16:43:23.419Z,4.61
2022-12-05T16:45:51.590Z,4.57
2022-12-05T16:48:29.469Z,4.47
2022-12-05T16:51:25.917Z,4.38
2022-12-05T16:53:54.537Z,4.42
2022-12-05T16:56:21.041Z,4.50
2022-12-05T16:58:47.662Z,4.50
2022-12-05T17:01:21.246Z,4.39
2022-12-05T17:03:48.143Z,4.45
2022-12-05T17:06:15.264Z,4.52
2022-12-05T17:08:42.095Z,4.46
2022-12-05T17:11:18.299Z,4.43
2022-12-05T17:13:47.493Z,4.45
2022-12-05T17:16:18.367Z,4.50
2022-12-05T17:18:45.299Z,4.39
2022-12-05T17:21:16.387Z,4.36
2022-12-05T17:23:47.684Z,4.30
2022-12-05T17:26:16.781Z,4.26
2022-12-05T17:28:43.355Z,4.29
2022-12-05T17:31:14.801Z,4.32
2022-12-05T17:33:41.380Z,4.40
2022-12-05T17:36:08.294Z,4.40
2022-12-05T17:38:34.835Z,4.38
2022-12-05T17:41:06.788Z,4.41
2022-12-05T17:43:34.400Z,4.41
2022-12-05T17:46:01.822Z,4.45
2022-12-05T17:48:28.548Z,4.50
2022-12-05T17:50:57.886Z,4.46
2022-12-05T17:53:24.725Z,4.48
2022-12-05T17:55:51.466Z,4.47
2022-12-05T17:58:18.217Z,4.45
2022-12-05T18:00:45.565Z,4.47
2022-12-05T18:03:17.494Z,4.46
2022-12-05T18:05:44.982Z,4.47
2022-12-05T18:08:12.025Z,4.43
2022-12-05T18:10:41.680Z,4.45
2022-12-05T18:13:08.533Z,4.47
2022-12-05T18:15:40.900Z,4.44
2022-12-05T18:18:14.868Z,4.37
2022-12-05T18:20:41.346Z,4.35
2022-12-05T18:23:07.887Z,4.31
2022-12-05T18:25:34.488Z,4.39
2022-12-05T18:28:01.008Z,4.28
2022-12-05T18:30:27.657Z,4.25
2022-12-05T18:32:54.616Z,4.21
2022-12-05T18:35:40.079Z,4.17
2022-12-05T18:38:13.064Z,4.15
2022-12-05T18:40:39.616Z,4.06
2022-12-05T18:43:06.206Z,4.02
2022-12-05T18:45:32.825Z,3.98
2022-12-05T18:48:16.393Z,3.95
2022-12-05T18:50:46.672Z,3.94
2022-12-05T18:53:13.153Z,3.92
2022-12-05T18:56:05.102Z,3.91
2022-12-05T18:58:26.175Z,3.90
2022-12-05T19:00:52.940Z,3.87
2022-12-05T19:03:19.539Z,3.86
2022-12-05T19:05:46.228Z,3.87
2022-12-05T19:08:12.771Z,3.88
2022-12-05T19:10:39.347Z,4.00
2022-12-05T19:13:05.853Z,4.09
2022-12-05T19:15:32.437Z,4.14
2022-12-05T19:17:59.027Z,4.10
2022-12-05T19:20:25.591Z,4.15
2022-12-05T19:22:56.362Z,4.13
2022-12-05T19:25:25.760Z,4.18
2022-12-05T19:27:52.254Z,4.10
2022-12-05T19:30:18.792Z,3.96
2022-12-05T19:32:45.323Z,3.93
2022-12-05T19:35:11.836Z,3.92
2022-12-05T19:37:38.383Z,3.98
2022-12-05T19:40:05.680Z,3.87
2022-12-05T19:42:32.573Z,3.79
2022-12-05T19:45:02.050Z,3.81
2022-12-05T19:47:32.809Z,3.81
2022-12-05T19:49:59.561Z,3.75
2022-12-05T19:52:26.248Z,3.69
2022-12-05T19:54:52.771Z,3.67
2022-12-05T19:57:19.817Z,3.64
2022-12-05T19:59:46.196Z,3.63
2022-12-05T20:02:15.695Z,3.63
2022-12-05T20:04:43.080Z,3.61
2022-12-05T20:07:09.588Z,3.58
2022-12-05T20:09:37.559Z,3.60
2022-12-05T20:12:04.923Z,3.55
2022-12-05T20:14:31.630Z,3.53
2022-12-05T20:16:58.191Z,3.53
2022-12-05T20:19:24.808Z,3.54
2022-12-05T20:21:52.036Z,3.54
2022-12-05T20:24:18.530Z,3.55
2022-12-05T20:26:45.221Z,3.52
2022-12-05T20:29:11.771Z,3.50
2022-12-05T20:31:40.763Z,3.49
2022-12-05T20:34:09.866Z,3.49
2022-12-05T20:36:36.454Z,3.49
2022-12-05T20:39:06.615Z,3.48
2022-12-05T20:41:33.383Z,3.47
2022-12-05T20:44:02.269Z,3.49
2022-12-05T20:46:29.249Z,3.54
2022-12-05T20:48:58.861Z,3.60
2022-12-05T20:51:28.198Z,3.62
2022-12-05T20:53:55.472Z,3.68
2022-12-05T20:56:28.297Z,3.68
2022-12-05T20:58:56.894Z,3.60
2022-12-05T21:01:25.679Z,3.60
2022-12-05T21:03:53.293Z,3.57
2022-12-05T21:06:27.159Z,3.55
2022-12-05T21:08:54.464Z,3.60
2022-12-05T21:11:22.125Z,3.67
2022-12-05T21:13:48.797Z,3.67
2022-12-05T21:16:18.255Z,3.67
2022-12-05T21:18:45.489Z,3.60
2022-12-05T21:21:15.010Z,3.64
2022-12-05T21:23:42.934Z,3.67
2022-12-05T21:26:13.495Z,3.65
2022-12-05T21:28:40.682Z,3.72
2022-12-05T21:31:11.713Z,3.72
2022-12-05T21:33:39.560Z,3.76
2022-12-05T21:36:06.965Z,3.75
2022-12-05T21:38:33.545Z,3.67
2022-12-05T21:41:00.251Z,3.71
2022-12-05T21:43:26.710Z,3.64
2022-12-05T21:45:54.118Z,3.68
2022-12-05T21:48:22.343Z,3.74
2022-12-05T21:50:49.498Z,3.75
2022-12-05T21:53:17.153Z,3.63
2022-12-05T21:55:43.687Z,3.68
2022-12-05T21:58:11.246Z,3.72
2022-12-05T22:00:38.544Z,3.65
2022-12-05T22:03:05.813Z,3.59
2022-12-05T22:05:33.380Z,3.54
2022-12-05T22:08:04.875Z,3.53
2022-12-05T22:10:37.131Z,3.43
2022-12-05T22:13:04.486Z,3.36
2022-12-05T22:15:31.206Z,3.37
2022-12-05T22:17:57.662Z,3.31
2022-12-05T22:20:24.357Z,3.30
2022-12-05T22:22:50.828Z,3.32
2022-12-05T22:25:17.265Z,3.38
2022-12-05T22:27:43.769Z,3.41
2022-12-05T22:30:10.481Z,3.45
2022-12-05T22:32:36.968Z,3.46
2022-12-05T22:35:04.401Z,3.49
2022-12-05T22:37:31.686Z,3.51
2022-12-05T22:40:01.427Z,3.53
2022-12-05T22:42:28.307Z,3.51
2022-12-05T22:44:54.750Z,3.48
2022-12-05T22:47:21.274Z,3.46
2022-12-05T22:49:47.734Z,3.41
2022-12-05T22:52:14.882Z,3.45
2022-12-05T22:54:41.340Z,3.35
2022-12-05T22:57:07.846Z,3.33
2022-12-05T22:59:34.399Z,3.41
2022-12-05T23:02:00.857Z,3.38
2022-12-05T23:04:27.465Z,3.39
2022-12-05T23:06:54.150Z,3.35
2022-12-05T23:09:20.972Z,3.34
2022-12-05T23:11:50.541Z,3.36
2022-12-05T23:14:17.138Z,3.30
2022-12-05T23:16:43.739Z,3.32
2022-12-05T23:19:10.244Z,3.32
2022-12-05T23:21:40.444Z,3.32
2022-12-05T23:24:12.425Z,3.35
2022-12-05T23:26:44.350Z,3.28
2022-12-05T23:29:12.476Z,3.27
2022-12-05T23:31:39.672Z,3.26
2022-12-05T23:34:06.760Z,3.25
2022-12-05T23:36:34.412Z,3.24
2022-12-05T23:39:01.314Z,3.25
2022-12-05T23:41:28.384Z,3.20
2022-12-05T23:43:54.965Z,3.22
2022-12-05T23:46:22.963Z,3.20
2022-12-05T23:48:50.482Z,3.12
2022-12-05T23:51:21.996Z,3.09
2022-12-05T23:53:53.045Z,3.18
2022-12-05T23:56:24.560Z,3.14
2022-12-05T23:58:51.747Z,3.20
